createdAt,value
2023-01-27T00:00:53.432Z,0.52
2023-01-27T00:01:53.498Z,0.52
2023-01-27T00:02:53.539Z,0.51
2023-01-27T00:03:53.685Z,0.52
2023-01-27T00:04:54.450Z,0.51
2023-01-27T00:05:53.637Z,0.51
2023-01-27T00:06:53.660Z,0.52
2023-01-27T00:07:53.671Z,0.53
2023-01-27T01:02:55.641Z,0.52
2023-01-27T01:03:55.646Z,0.52
2023-01-27T01:04:55.684Z,0.52
2023-01-27T01:05:55.734Z,0.52
2023-01-27T01:06:55.762Z,0.54
2023-01-27T01:07:55.804Z,0.52
2023-01-27T01:08:55.876Z,0.51
2023-01-27T01:09:55.889Z,0.54
2023-01-27T01:10:55.904Z,0.53
2023-01-27T01:11:55.953Z,0.53
2023-01-27T01:12:55.970Z,0.52
2023-01-27T01:13:56.626Z,0.53
2023-01-27T01:14:56.069Z,0.52
2023-01-27T01:15:56.166Z,0.52
2023-01-27T01:16:56.135Z,0.53
2023-01-27T01:17:56.196Z,0.53
2023-01-27T01:18:56.301Z,0.53
2023-01-27T01:19:56.254Z,0.52
2023-01-27T01:20:56.305Z,0.54
2023-01-27T01:21:56.382Z,0.53
2023-01-27T01:22:56.384Z,0.55
2023-01-27T01:23:56.478Z,0.53
2023-01-27T01:24:56.804Z,0.53
2023-01-27T01:25:56.851Z,0.53
2023-01-27T01:26:56.613Z,0.52
2023-01-27T01:27:56.471Z,0.52
2023-01-27T01:28:56.495Z,0.54
2023-01-27T01:29:56.577Z,0.53
2023-01-27T01:30:56.749Z,0.53
2023-01-27T01:31:56.584Z,0.53
2023-01-27T01:32:56.619Z,0.52
2023-01-27T01:33:56.680Z,0.55
2023-01-27T01:34:56.701Z,0.52
2023-01-27T01:35:56.745Z,0.53
2023-01-27T01:36:56.858Z,0.54
2023-01-27T01:37:56.831Z,0.54
2023-01-27T01:38:56.871Z,0.53
2023-01-27T01:39:56.898Z,0.54
2023-01-27T01:40:56.911Z,0.54
2023-01-27T01:41:57.202Z,0.53
2023-01-27T01:42:57.026Z,0.53
2023-01-27T01:43:57.047Z,0.52
2023-01-27T01:44:57.078Z,0.54
2023-01-27T01:45:57.120Z,0.55
2023-01-27T01:46:57.242Z,0.55
2023-01-27T01:47:57.202Z,0.55
2023-01-27T01:48:57.227Z,0.56
2023-01-27T01:49:57.290Z,0.54
2023-01-27T01:50:57.336Z,0.53
2023-01-27T01:51:57.354Z,0.56
2023-01-27T01:52:57.418Z,0.57
2023-01-27T01:53:57.452Z,0.55
2023-01-27T01:54:57.528Z,0.55
2023-01-27T01:55:57.518Z,0.56
2023-01-27T01:58:57.620Z,0.55
2023-01-27T01:59:57.708Z,0.56
2023-01-27T02:00:57.828Z,0.56
2023-01-27T02:01:57.983Z,0.57
2023-01-27T02:02:57.885Z,0.56
2023-01-27T02:03:57.842Z,0.56
2023-01-27T02:04:57.903Z,0.56
2023-01-27T02:05:57.898Z,0.55
2023-01-27T02:18:58.462Z,0.54
2023-01-27T02:19:58.543Z,0.55
2023-01-27T02:20:58.531Z,0.54
2023-01-27T02:21:58.540Z,0.54
2023-01-27T02:22:58.631Z,0.55
2023-01-27T02:23:58.657Z,0.55
2023-01-27T02:24:58.674Z,0.56
2023-01-27T02:25:58.765Z,0.55
2023-01-27T02:26:58.770Z,0.55
2023-01-27T02:27:58.832Z,0.56
2023-01-27T02:28:58.835Z,0.54
2023-01-27T02:29:58.940Z,0.55
2023-01-27T02:30:59.044Z,0.56
2023-01-27T02:31:58.960Z,0.55
2023-01-27T02:32:59.034Z,0.55
2023-01-27T02:33:59.085Z,0.55
2023-01-27T02:34:59.137Z,0.55
2023-01-27T02:35:59.249Z,0.54
2023-01-27T02:36:59.188Z,0.54
2023-01-27T02:37:59.239Z,0.56
2023-01-27T02:38:59.277Z,0.56
2023-01-27T02:39:59.375Z,0.56
2023-01-27T02:40:59.396Z,0.54
2023-01-27T02:41:59.442Z,0.55
2023-01-27T02:42:59.488Z,0.54
2023-01-27T02:43:59.529Z,0.55
2023-01-27T02:44:59.601Z,0.54
2023-01-27T02:45:59.727Z,0.54
2023-01-27T02:46:59.657Z,0.54
2023-01-27T02:47:59.713Z,0.56
2023-01-27T02:48:59.743Z,0.54
2023-01-27T02:49:59.790Z,0.55
2023-01-27T02:50:59.796Z,0.54
2023-01-27T02:51:59.848Z,0.54
2023-01-27T02:52:59.896Z,0.55
2023-01-27T02:53:59.961Z,0.54
2023-01-27T02:55:00.027Z,0.54
2023-01-27T02:56:00.040Z,0.54
2023-01-27T02:57:01.013Z,0.54
2023-01-27T02:58:00.112Z,0.55
2023-01-27T02:59:00.175Z,0.54
2023-01-27T03:00:00.204Z,0.54
2023-01-27T03:01:00.273Z,0.55
2023-01-27T03:02:00.323Z,0.56
2023-01-27T03:03:00.382Z,0.55
2023-01-27T03:04:00.407Z,0.54
2023-01-27T03:05:00.470Z,0.55
2023-01-27T03:06:00.480Z,0.55
2023-01-27T03:07:00.560Z,0.59
2023-01-27T03:08:00.576Z,0.59
2023-01-27T03:09:00.674Z,0.60
2023-01-27T03:10:00.672Z,0.63
2023-01-27T03:11:00.699Z,0.64
2023-01-27T03:12:00.728Z,0.64
2023-01-27T03:13:00.813Z,0.61
2023-01-27T03:14:00.824Z,0.62
2023-01-27T03:15:00.859Z,0.63
2023-01-27T03:16:00.932Z,0.61
2023-01-27T03:17:00.914Z,0.64
2023-01-27T03:18:00.929Z,0.64
2023-01-27T03:19:00.968Z,0.65
2023-01-27T03:20:01.013Z,0.64
2023-01-27T03:21:01.023Z,0.63
2023-01-27T03:22:01.039Z,0.63
2023-01-27T03:23:01.095Z,0.66
2023-01-27T03:24:01.167Z,0.65
2023-01-27T03:25:01.078Z,0.65
2023-01-27T03:26:01.093Z,0.66
2023-01-27T03:27:01.113Z,0.67
2023-01-27T03:28:01.155Z,0.68
2023-01-27T03:29:01.130Z,0.67
2023-01-27T03:30:01.134Z,0.69
2023-01-27T03:31:01.239Z,0.68
2023-01-27T03:32:01.147Z,0.69
2023-01-27T03:33:01.146Z,0.69
2023-01-27T03:34:01.164Z,0.68
2023-01-27T03:35:01.174Z,0.68
2023-01-27T03:36:01.189Z,0.71
2023-01-27T03:37:01.132Z,0.72
2023-01-27T03:38:01.145Z,0.70
2023-01-27T03:39:01.154Z,0.69
2023-01-27T03:40:01.132Z,0.69
2023-01-27T03:41:01.141Z,0.70
2023-01-27T03:42:01.151Z,0.69
2023-01-27T03:43:01.155Z,0.70
2023-01-27T03:44:01.189Z,0.70
2023-01-27T03:45:01.213Z,0.70
2023-01-27T03:46:01.252Z,0.69
2023-01-27T03:47:01.296Z,0.72
2023-01-27T03:48:01.286Z,0.71
2023-01-27T03:49:01.372Z,0.68
2023-01-27T03:50:01.420Z,0.71
2023-01-27T03:51:01.414Z,0.70
2023-01-27T03:52:01.485Z,0.68
2023-01-27T03:53:01.549Z,0.71
2023-01-27T03:54:01.596Z,0.69
2023-01-27T03:55:01.659Z,0.72
2023-01-27T03:56:01.726Z,0.72
2023-01-27T03:57:01.750Z,0.71
2023-01-27T03:58:01.838Z,0.71
2023-01-27T03:59:01.907Z,0.70
2023-01-27T04:00:01.973Z,0.71
2023-01-27T04:01:02.017Z,0.71
2023-01-27T04:02:02.086Z,0.70
2023-01-27T04:03:02.219Z,0.70
2023-01-27T04:04:02.195Z,0.70
2023-01-27T04:05:02.266Z,0.70
2023-01-27T04:06:02.345Z,0.71
2023-01-27T04:07:02.387Z,0.70
2023-01-27T04:08:02.448Z,0.73
2023-01-27T04:09:02.501Z,0.71
2023-01-27T04:10:02.645Z,0.73
2023-01-27T04:11:02.618Z,0.72
2023-01-27T04:12:02.690Z,0.72
2023-01-27T04:13:02.726Z,0.73
2023-01-27T04:14:02.814Z,0.71
2023-01-27T04:15:02.850Z,0.71
2023-01-27T04:16:03.066Z,0.72
2023-01-27T04:17:03.003Z,0.70
2023-01-27T04:18:03.036Z,0.70
2023-01-27T04:19:03.078Z,0.71
2023-01-27T04:20:03.154Z,0.71
2023-01-27T04:21:03.172Z,0.71
2023-01-27T04:22:03.270Z,0.71
2023-01-27T04:23:03.337Z,0.72
2023-01-27T04:24:03.362Z,0.72
2023-01-27T04:25:03.401Z,0.71
2023-01-27T04:26:03.428Z,0.71
2023-01-27T04:27:03.557Z,0.70
2023-01-27T04:28:03.587Z,0.70
2023-01-27T04:29:03.645Z,0.71
2023-01-27T04:30:03.695Z,0.71
2023-01-27T04:31:03.841Z,0.70
2023-01-27T04:32:03.789Z,0.71
2023-01-27T04:33:03.839Z,0.72
2023-01-27T04:34:03.865Z,0.73
2023-01-27T04:35:03.938Z,0.71
2023-01-27T04:36:04.008Z,0.71
2023-01-27T04:37:04.014Z,0.71
2023-01-27T04:38:04.047Z,0.73
2023-01-27T04:39:04.142Z,0.76
2023-01-27T04:40:04.175Z,0.74
2023-01-27T04:41:04.214Z,0.73
2023-01-27T04:42:04.305Z,0.73
2023-01-27T04:43:04.331Z,0.73
2023-01-27T04:44:04.373Z,0.75
2023-01-27T04:45:04.451Z,0.74
2023-01-27T04:46:04.558Z,0.75
2023-01-27T04:47:04.565Z,0.74
2023-01-27T04:48:04.608Z,0.74
2023-01-27T04:49:04.651Z,0.72
2023-01-27T04:50:04.717Z,0.77
2023-01-27T04:51:04.801Z,0.73
2023-01-27T04:52:04.817Z,0.74
2023-01-27T04:53:04.881Z,0.74
2023-01-27T04:54:04.974Z,0.75
2023-01-27T04:55:05.079Z,0.73
2023-01-27T04:56:05.067Z,0.71
2023-01-27T04:57:05.130Z,0.74
2023-01-27T04:58:05.185Z,0.73
2023-01-27T04:59:05.216Z,0.75
2023-01-27T05:00:05.286Z,0.76
2023-01-27T05:01:05.388Z,0.74
2023-01-27T05:02:05.466Z,0.74
2023-01-27T05:03:05.562Z,0.75
2023-01-27T05:04:05.564Z,0.74
2023-01-27T05:05:05.599Z,0.72
2023-01-27T05:06:05.655Z,0.73
2023-01-27T05:07:05.714Z,0.73
2023-01-27T05:37:08.585Z,0.72
2023-01-27T05:52:08.509Z,0.71
2023-01-27T05:53:08.548Z,0.72
2023-01-27T05:54:08.612Z,0.70
2023-01-27T05:55:08.675Z,0.70
2023-01-27T05:56:08.737Z,0.70
2023-01-27T05:57:08.818Z,0.71
2023-01-27T05:58:08.834Z,0.70
2023-01-27T05:59:08.909Z,0.71
2023-01-27T06:00:08.955Z,0.68
2023-01-27T06:01:15.986Z,0.69
2023-01-27T06:02:09.001Z,0.69
2023-01-27T06:03:09.024Z,0.69
2023-01-27T06:04:08.979Z,0.69
2023-01-27T06:05:08.952Z,0.68
2023-01-27T06:06:08.921Z,0.67
2023-01-27T06:07:08.919Z,0.68
2023-01-27T06:08:08.922Z,0.68
2023-01-27T06:09:08.921Z,0.69
2023-01-27T06:10:08.920Z,0.68
2023-01-27T06:11:08.983Z,0.70
2023-01-27T06:12:08.888Z,0.68
2023-01-27T06:13:08.893Z,0.68
2023-01-27T06:14:08.894Z,0.67
2023-01-27T06:15:08.878Z,0.68
2023-01-27T06:16:08.908Z,0.66
2023-01-27T06:17:08.878Z,0.68
2023-01-27T06:18:08.842Z,0.67
2023-01-27T06:19:08.835Z,0.66
2023-01-27T06:20:08.833Z,0.66
2023-01-27T06:21:08.877Z,0.68
2023-01-27T06:22:08.819Z,0.67
2023-01-27T06:23:08.807Z,0.69
2023-01-27T06:24:08.839Z,0.68
2023-01-27T06:25:08.824Z,0.70
2023-01-27T06:26:08.774Z,0.68
2023-01-27T06:27:08.777Z,0.67
2023-01-27T06:28:10.777Z,0.68
2023-01-27T06:29:08.795Z,0.67
2023-01-27T06:30:08.810Z,0.67
2023-01-27T06:31:08.841Z,0.68
2023-01-27T06:32:08.929Z,0.66
2023-01-27T06:33:08.822Z,0.68
2023-01-27T06:34:08.781Z,0.69
2023-01-27T06:35:08.775Z,0.87
2023-01-27T06:36:08.785Z,1.03
2023-01-27T06:37:08.757Z,1.26
2023-01-27T06:38:08.763Z,1.36
2023-01-27T06:39:08.724Z,1.75
2023-01-27T06:40:08.769Z,2.41
2023-01-27T06:41:08.753Z,2.76
2023-01-27T06:42:08.737Z,2.91
2023-01-27T06:43:08.694Z,3.32
2023-01-27T06:44:08.689Z,3.43
2023-01-27T06:45:08.706Z,3.30
2023-01-27T06:46:15.798Z,3.42
2023-01-27T06:47:08.719Z,3.43
2023-01-27T06:48:08.870Z,3.46
2023-01-27T06:49:08.674Z,3.54
2023-01-27T06:50:08.628Z,3.71
2023-01-27T06:51:08.735Z,3.91
2023-01-27T06:52:08.659Z,4.00
2023-01-27T06:53:08.660Z,4.00
2023-01-27T06:54:08.673Z,4.41
2023-01-27T06:55:08.606Z,4.32
2023-01-27T06:56:08.606Z,4.17
2023-01-27T06:57:08.619Z,4.32
2023-01-27T06:58:08.577Z,4.49
2023-01-27T06:59:08.596Z,4.65
2023-01-27T07:00:08.598Z,4.42
2023-01-27T07:01:08.642Z,4.31
2023-01-27T07:02:08.623Z,4.34
2023-01-27T07:03:08.570Z,4.28
2023-01-27T07:04:08.561Z,4.32
2023-01-27T07:05:08.599Z,4.32
2023-01-27T07:06:08.539Z,4.23
2023-01-27T07:07:08.548Z,4.29
2023-01-27T07:08:08.504Z,4.17
2023-01-27T07:09:08.564Z,4.18
2023-01-27T07:10:08.492Z,4.11
2023-01-27T07:11:08.718Z,4.00
2023-01-27T07:12:08.638Z,3.91
2023-01-27T07:13:08.727Z,4.02
2023-01-27T07:14:10.545Z,3.92
2023-01-27T07:15:08.834Z,3.86
2023-01-27T07:16:08.880Z,3.82
2023-01-27T07:17:08.892Z,3.63
2023-01-27T07:18:08.958Z,3.65
2023-01-27T07:19:09.068Z,3.52
2023-01-27T07:20:09.665Z,3.46
2023-01-27T07:21:09.209Z,3.50
2023-01-27T07:22:09.194Z,3.36
2023-01-27T07:23:09.197Z,3.28
2023-01-27T07:24:09.304Z,3.30
2023-01-27T07:25:09.335Z,3.26
2023-01-27T07:26:23.325Z,3.21
2023-01-27T07:27:10.364Z,3.21
2023-01-27T07:28:09.331Z,3.16
2023-01-27T07:29:09.339Z,3.13
2023-01-27T07:30:09.367Z,3.06
2023-01-27T07:31:09.458Z,2.99
2023-01-27T07:32:09.328Z,2.96
2023-01-27T07:33:09.322Z,2.87
2023-01-27T07:34:09.346Z,2.86
2023-01-27T07:35:09.313Z,2.84
2023-01-27T07:36:09.352Z,2.78
2023-01-27T07:37:09.699Z,2.81
2023-01-27T07:38:09.476Z,2.73
2023-01-27T07:39:09.493Z,2.65
2023-01-27T07:40:09.590Z,2.57
2023-01-27T07:41:09.587Z,2.54
2023-01-27T07:42:09.672Z,2.50
2023-01-27T07:43:09.707Z,2.48
2023-01-27T07:44:09.738Z,2.49
2023-01-27T07:45:09.765Z,2.42
2023-01-27T07:46:09.895Z,2.40
2023-01-27T07:47:10.188Z,2.36
2023-01-27T07:48:09.960Z,2.34
2023-01-27T07:49:09.995Z,2.31
2023-01-27T07:50:10.061Z,2.27
2023-01-27T07:51:10.112Z,2.22
2023-01-27T07:52:10.187Z,2.22
2023-01-27T07:53:10.218Z,2.21
2023-01-27T07:54:10.303Z,2.17
2023-01-27T07:55:10.399Z,2.14
2023-01-27T07:56:10.341Z,2.07
2023-01-27T07:57:10.428Z,2.06
2023-01-27T07:58:10.479Z,2.02
2023-01-27T07:59:10.504Z,2.00
2023-01-27T08:00:10.729Z,1.98
2023-01-27T08:01:10.702Z,1.93
2023-01-27T08:02:11.183Z,1.90
2023-01-27T08:03:10.811Z,1.93
2023-01-27T08:04:10.813Z,1.84
2023-01-27T08:05:10.865Z,1.80
2023-01-27T08:06:10.931Z,1.83
2023-01-27T08:07:11.027Z,1.82
2023-01-27T08:08:11.046Z,1.80
2023-01-27T08:09:11.121Z,1.78
2023-01-27T08:10:11.403Z,1.76
2023-01-27T08:11:11.193Z,1.72
2023-01-27T08:12:11.265Z,1.69
2023-01-27T08:13:11.362Z,1.65
2023-01-27T08:14:11.388Z,1.63
2023-01-27T08:15:11.463Z,1.60
2023-01-27T08:16:11.511Z,1.60
2023-01-27T08:17:11.526Z,1.58
2023-01-27T08:18:11.580Z,1.56
2023-01-27T08:19:11.636Z,1.47
2023-01-27T08:20:12.023Z,1.48
2023-01-27T08:21:11.748Z,1.46
2023-01-27T08:22:11.821Z,1.44
2023-01-27T08:23:11.884Z,1.38
2023-01-27T08:24:11.984Z,1.40
2023-01-27T08:25:11.967Z,1.37
2023-01-27T08:26:12.043Z,1.35
2023-01-27T08:27:12.089Z,1.33
2023-01-27T08:28:12.182Z,1.35
2023-01-27T08:29:12.190Z,1.36
2023-01-27T08:30:12.549Z,1.37
2023-01-27T08:31:12.382Z,1.30
2023-01-27T08:32:14.871Z,1.22
2023-01-27T08:33:12.323Z,1.21
2023-01-27T08:34:12.363Z,1.22
2023-01-27T08:35:12.347Z,1.23
2023-01-27T08:36:12.360Z,1.23
2023-01-27T08:37:12.326Z,1.19
2023-01-27T08:38:12.309Z,1.17
2023-01-27T08:39:12.340Z,1.19
2023-01-27T08:40:12.680Z,1.21
2023-01-27T08:41:12.280Z,1.18
2023-01-27T08:42:12.284Z,1.19
2023-01-27T08:43:13.113Z,1.19
2023-01-27T08:44:12.287Z,1.17
2023-01-27T08:45:12.298Z,1.21
2023-01-27T08:46:12.358Z,1.20
2023-01-27T08:47:12.713Z,1.18
2023-01-27T08:48:13.257Z,1.18
2023-01-27T08:49:12.259Z,1.18
2023-01-27T08:50:12.709Z,1.15
2023-01-27T08:51:12.376Z,1.12
2023-01-27T08:52:12.743Z,1.12
2023-01-27T08:53:12.442Z,1.11
2023-01-27T08:54:12.481Z,1.12
2023-01-27T08:55:12.545Z,1.11
2023-01-27T08:56:12.589Z,1.09
2023-01-27T08:57:12.621Z,1.11
2023-01-27T08:58:12.628Z,1.08
2023-01-27T08:59:12.672Z,1.06
2023-01-27T09:00:13.351Z,1.06
2023-01-27T09:01:12.819Z,1.05
2023-01-27T09:02:13.215Z,1.05
2023-01-27T09:03:12.893Z,1.00
2023-01-27T09:04:12.971Z,0.99
2023-01-27T09:05:12.993Z,1.00
2023-01-27T09:06:13.043Z,0.99
2023-01-27T09:07:13.070Z,0.94
2023-01-27T09:08:13.155Z,0.81
2023-01-27T09:09:13.203Z,0.80
2023-01-27T09:10:15.962Z,0.73
2023-01-27T09:11:13.257Z,0.71
2023-01-27T09:12:13.265Z,0.67
2023-01-27T09:13:13.261Z,0.66
2023-01-27T09:14:13.228Z,0.66
2023-01-27T09:15:13.264Z,0.64
2023-01-27T09:16:13.250Z,0.63
2023-01-27T09:17:13.208Z,0.61
2023-01-27T09:18:13.178Z,0.59
2023-01-27T09:19:13.196Z,0.61
2023-01-27T09:20:13.576Z,0.65
2023-01-27T09:21:13.173Z,0.69
2023-01-27T09:22:13.154Z,0.70
2023-01-27T09:23:13.152Z,0.60
2023-01-27T09:24:13.170Z,0.58
2023-01-27T09:25:13.165Z,0.58
2023-01-27T09:26:13.127Z,0.58
2023-01-27T09:27:13.130Z,0.55
2023-01-27T09:28:13.135Z,0.56
2023-01-27T09:29:13.124Z,0.55
2023-01-27T09:30:13.509Z,0.56
2023-01-27T09:31:13.181Z,0.57
2023-01-27T09:32:13.129Z,0.58
2023-01-27T09:33:14.421Z,0.59
2023-01-27T09:34:13.047Z,0.64
2023-01-27T09:35:13.567Z,0.71
2023-01-27T09:36:13.072Z,0.75
2023-01-27T09:37:13.046Z,0.72
2023-01-27T09:38:13.046Z,0.71
2023-01-27T09:39:13.109Z,0.71
2023-01-27T09:40:13.018Z,0.71
2023-01-27T09:41:12.998Z,0.68
2023-01-27T09:42:14.022Z,0.70
2023-01-27T09:43:13.024Z,0.69
2023-01-27T09:44:12.996Z,0.71
2023-01-27T09:45:13.249Z,0.71
2023-01-27T09:46:12.987Z,0.67
2023-01-27T09:47:12.955Z,0.68
2023-01-27T09:48:12.943Z,0.67
2023-01-27T09:49:12.953Z,0.68
2023-01-27T09:50:13.295Z,0.67
2023-01-27T09:51:12.952Z,0.68
2023-01-27T09:52:12.936Z,0.67
2023-01-27T09:53:12.946Z,0.69
2023-01-27T09:54:12.961Z,0.71
2023-01-27T09:55:13.202Z,0.70
2023-01-27T09:56:12.968Z,0.72
2023-01-27T09:57:13.285Z,0.71
2023-01-27T09:58:13.028Z,0.72
2023-01-27T09:59:13.106Z,0.73
2023-01-27T10:00:13.491Z,0.73
2023-01-27T10:01:13.357Z,0.71
2023-01-27T10:02:13.259Z,0.68
2023-01-27T10:03:14.267Z,0.68
2023-01-27T10:04:13.348Z,0.71
2023-01-27T10:05:13.329Z,0.70
2023-01-27T10:06:13.381Z,0.69
2023-01-27T10:07:13.400Z,0.69
2023-01-27T10:08:13.451Z,0.72
2023-01-27T10:09:14.326Z,0.72
2023-01-27T10:10:13.866Z,0.71
2023-01-27T10:11:13.623Z,0.68
2023-01-27T10:12:13.722Z,0.70
2023-01-27T10:13:13.742Z,0.69
2023-01-27T10:14:13.708Z,0.68
2023-01-27T10:15:13.756Z,0.66
2023-01-27T10:16:13.777Z,0.61
2023-01-27T10:17:13.854Z,0.61
2023-01-27T10:18:14.063Z,0.57
2023-01-27T10:19:14.288Z,0.55
2023-01-27T10:20:14.496Z,0.59
2023-01-27T10:21:14.038Z,0.54
2023-01-27T10:22:14.058Z,0.53
2023-01-27T10:23:14.122Z,0.53
2023-01-27T10:24:14.180Z,0.52
2023-01-27T10:25:14.234Z,0.51
2023-01-27T10:26:14.309Z,0.51
2023-01-27T10:27:15.300Z,0.51
2023-01-27T10:28:14.298Z,0.51
2023-01-27T10:29:14.248Z,0.51
2023-01-27T10:30:14.603Z,0.52
2023-01-27T10:31:14.297Z,0.52
2023-01-27T10:32:14.247Z,0.52
2023-01-27T10:33:14.209Z,0.53
2023-01-27T10:34:14.256Z,0.50
2023-01-27T10:35:14.206Z,0.51
2023-01-27T10:36:14.202Z,0.51
2023-01-27T10:39:14.173Z,0.53
2023-01-27T10:40:14.420Z,0.51
2023-01-27T10:41:14.159Z,0.51
2023-01-27T10:42:14.225Z,0.51
2023-01-27T10:43:14.160Z,0.54
2023-01-27T10:44:14.169Z,0.56
2023-01-27T10:45:14.162Z,0.53
2023-01-27T10:46:14.125Z,0.49
2023-01-27T10:47:14.140Z,0.51
2023-01-27T10:48:14.116Z,0.53
2023-01-27T10:49:14.109Z,0.54
2023-01-27T10:50:14.355Z,0.54
2023-01-27T10:51:14.113Z,0.56
2023-01-27T10:52:14.101Z,0.55
2023-01-27T10:53:14.074Z,0.55
2023-01-27T10:54:14.113Z,0.55
2023-01-27T10:55:14.079Z,0.55
2023-01-27T10:56:14.125Z,0.53
2023-01-27T10:57:14.156Z,0.59
2023-01-27T10:58:14.136Z,0.58
2023-01-27T10:59:14.215Z,0.60
2023-01-27T11:00:41.817Z,0.55
2023-01-27T11:01:21.430Z,0.55
2023-01-27T11:02:15.225Z,0.55
2023-01-27T11:03:14.164Z,0.55
2023-01-27T11:04:14.266Z,0.55
2023-01-27T11:05:14.162Z,0.56
2023-01-27T11:06:14.201Z,0.55
2023-01-27T12:04:15.388Z,0.76
2023-01-27T12:05:15.377Z,0.79
2023-01-27T12:06:15.421Z,0.78
2023-01-27T12:07:15.501Z,0.76
2023-01-27T12:08:15.503Z,0.77
2023-01-27T12:09:15.584Z,0.74
2023-01-27T12:10:17.565Z,0.76
2023-01-27T12:11:15.592Z,0.79
2023-01-27T12:12:15.557Z,0.78
2023-01-27T12:13:15.795Z,0.76
2023-01-27T12:14:15.575Z,0.75
2023-01-27T12:15:15.537Z,0.76
2023-01-27T12:16:15.595Z,0.78
2023-01-27T12:17:15.565Z,0.73
2023-01-27T12:18:15.573Z,0.73
2023-01-27T12:19:15.521Z,0.73
2023-01-27T12:20:15.880Z,0.73
2023-01-27T12:21:15.527Z,0.74
2023-01-27T12:22:15.507Z,0.73
2023-01-27T12:23:15.490Z,0.74
2023-01-27T12:24:15.573Z,0.75
2023-01-27T12:25:15.525Z,0.75
2023-01-27T12:26:15.465Z,0.73
2023-01-27T12:27:15.502Z,0.75
2023-01-27T12:28:15.785Z,0.75
2023-01-27T12:29:15.448Z,0.77
2023-01-27T12:30:15.738Z,0.75
2023-01-27T12:31:15.580Z,0.75
2023-01-27T12:32:15.548Z,0.75
2023-01-27T12:33:15.438Z,0.76
2023-01-27T12:34:15.412Z,0.76
2023-01-27T12:35:15.420Z,0.76
2023-01-27T12:36:15.427Z,0.76
2023-01-27T12:37:15.390Z,0.77
2023-01-27T12:38:15.400Z,0.75
2023-01-27T12:39:15.359Z,0.77
2023-01-27T12:40:15.674Z,0.76
2023-01-27T12:41:15.474Z,0.74
2023-01-27T12:42:15.351Z,0.75
2023-01-27T12:43:15.380Z,0.76
2023-01-27T12:44:15.365Z,0.78
2023-01-27T12:45:15.349Z,0.79
2023-01-27T12:46:15.354Z,0.75
2023-01-27T12:47:15.359Z,0.77
2023-01-27T12:50:15.741Z,0.76
2023-01-27T13:06:15.322Z,0.75
2023-01-27T13:07:15.328Z,0.74
2023-01-27T13:08:15.427Z,0.73
2023-01-27T13:09:15.427Z,0.74
2023-01-27T13:10:15.693Z,0.72
2023-01-27T13:11:15.535Z,0.72
2023-01-27T13:12:15.559Z,0.75
2023-01-27T13:13:15.601Z,0.92
2023-01-27T13:36:16.671Z,17.02
2023-01-27T13:37:16.729Z,16.83
2023-01-27T13:38:16.773Z,17.23
2023-01-27T13:39:16.793Z,16.34
2023-01-27T13:40:16.856Z,15.78
2023-01-27T13:41:16.886Z,15.91
2023-01-27T13:42:16.954Z,15.18
2023-01-27T13:43:17.080Z,14.64
2023-01-27T13:44:17.005Z,14.33
2023-01-27T13:45:17.081Z,14.11
2023-01-27T13:46:17.477Z,13.96
2023-01-27T13:47:17.150Z,13.34
2023-01-27T13:48:17.331Z,13.13
2023-01-27T13:49:17.251Z,12.59
2023-01-27T13:50:17.283Z,12.46
2023-01-27T13:51:17.336Z,12.06
2023-01-27T13:52:17.384Z,11.66
2023-01-27T13:53:17.415Z,11.19
2023-01-27T13:54:17.459Z,11.02
2023-01-27T13:55:17.498Z,10.36
2023-01-27T13:56:17.527Z,10.25
2023-01-27T13:57:17.598Z,9.98
2023-01-27T13:58:17.654Z,9.84
2023-01-27T13:59:17.698Z,9.70
2023-01-27T14:00:17.742Z,9.21
2023-01-27T14:01:17.831Z,8.88
2023-01-27T14:02:17.821Z,8.79
2023-01-27T14:03:17.930Z,8.73
2023-01-27T14:04:17.946Z,8.44
2023-01-27T14:05:17.971Z,8.18
2023-01-27T14:06:18.041Z,7.90
2023-01-27T14:07:18.060Z,7.86
2023-01-27T14:08:18.130Z,7.64
2023-01-27T14:09:18.160Z,7.58
2023-01-27T14:10:18.220Z,7.32
2023-01-27T14:11:18.280Z,7.03
2023-01-27T14:12:18.324Z,6.89
2023-01-27T14:32:19.305Z,4.46
2023-01-27T14:35:19.445Z,4.25
2023-01-27T14:36:19.521Z,4.21
2023-01-27T14:37:19.579Z,4.21
2023-01-27T14:39:19.634Z,3.94
2023-01-27T14:45:20.243Z,3.40
2023-01-27T14:46:20.016Z,3.35
2023-01-27T14:47:19.998Z,3.37
2023-01-27T14:48:20.061Z,3.28
2023-01-27T14:49:20.116Z,3.21
2023-01-27T14:50:20.155Z,3.15
2023-01-27T14:51:20.307Z,3.12
2023-01-27T14:52:20.271Z,3.03
2023-01-27T18:08:25.344Z,0.53
2023-01-27T18:09:25.378Z,0.53
2023-01-27T18:10:25.427Z,0.55
2023-01-27T18:11:25.429Z,0.51
2023-01-27T18:12:25.458Z,0.53
2023-01-27T18:13:25.505Z,0.55
2023-01-27T18:14:25.480Z,0.54
2023-01-27T18:15:25.519Z,0.53
2023-01-27T18:16:25.545Z,0.52
2023-01-27T18:17:25.579Z,0.53
2023-01-27T18:18:25.606Z,0.52
2023-01-27T18:19:25.642Z,0.54
2023-01-27T18:20:25.653Z,0.56
2023-01-27T18:21:25.668Z,0.55
2023-01-27T18:22:25.669Z,0.52
2023-01-27T18:23:25.720Z,0.52
2023-01-27T18:24:25.971Z,0.52
2023-01-27T18:25:25.798Z,0.54
2023-01-27T18:26:25.769Z,0.51
2023-01-27T18:27:25.825Z,0.51
2023-01-27T18:28:25.854Z,0.50
2023-01-27T18:29:25.878Z,0.51
2023-01-27T18:30:25.903Z,0.51
2023-01-27T18:31:25.992Z,0.51
2023-01-27T18:32:25.936Z,0.50
2023-01-27T18:33:25.948Z,0.51
2023-01-27T18:34:25.981Z,0.51
2023-01-27T18:35:26.017Z,0.52
2023-01-27T18:36:26.020Z,0.51
2023-01-27T18:37:26.075Z,0.50
2023-01-27T18:38:26.059Z,0.51
2023-01-27T18:39:26.100Z,0.51
2023-01-27T18:40:26.144Z,0.51
2023-01-27T18:41:26.183Z,0.50
2023-01-27T18:42:26.208Z,0.51
2023-01-27T18:43:26.217Z,0.51
2023-01-27T18:44:26.250Z,0.50
2023-01-27T18:45:26.280Z,0.52
2023-01-27T18:46:26.313Z,0.52
2023-01-27T18:47:26.329Z,0.52
2023-01-27T18:48:26.349Z,0.50
2023-01-27T18:49:26.401Z,0.51
2023-01-27T18:50:26.418Z,0.51
2023-01-27T18:51:26.421Z,0.51
2023-01-27T18:52:26.458Z,0.51
2023-01-27T18:53:26.489Z,0.50
2023-01-27T18:54:26.527Z,0.51
2023-01-27T18:55:26.563Z,0.52
2023-01-27T18:56:26.574Z,0.51
2023-01-27T18:57:26.584Z,0.50
2023-01-27T18:58:26.623Z,0.50
2023-01-27T18:59:26.655Z,0.51
2023-01-27T19:00:26.715Z,0.52
2023-01-27T19:01:26.708Z,0.50
2023-01-27T19:02:26.775Z,0.51
2023-01-27T19:03:26.785Z,0.51
2023-01-27T19:04:26.812Z,0.51
2023-01-27T19:05:26.814Z,0.51
2023-01-27T19:06:26.875Z,0.50
2023-01-27T19:07:26.890Z,0.52
2023-01-27T19:08:26.935Z,0.52
2023-01-27T19:09:26.970Z,0.54
2023-01-27T19:10:26.950Z,0.56
2023-01-27T19:11:27.174Z,0.51
2023-01-27T19:12:27.345Z,0.51
2023-01-27T19:13:27.179Z,0.52
2023-01-27T19:14:27.010Z,0.51
2023-01-27T19:15:27.037Z,0.55
2023-01-27T19:16:27.150Z,0.50
2023-01-27T19:17:27.060Z,0.51
2023-01-27T19:18:27.112Z,0.50
2023-01-27T19:19:27.096Z,0.52
2023-01-27T19:20:27.132Z,0.51
2023-01-27T19:21:27.193Z,0.51
2023-01-27T19:22:27.196Z,0.51
2023-01-27T19:23:27.205Z,0.50
2023-01-27T19:24:27.240Z,0.50
2023-01-27T19:25:27.248Z,0.50
2023-01-27T19:26:27.291Z,0.51
2023-01-27T19:27:27.334Z,0.52
2023-01-27T19:28:27.338Z,0.51
2023-01-27T19:29:27.394Z,0.52
2023-01-27T19:30:27.376Z,0.50
2023-01-27T19:31:27.508Z,0.50
2023-01-27T19:32:27.456Z,0.52
2023-01-27T19:33:27.469Z,0.51
2023-01-27T19:34:27.530Z,0.52
2023-01-27T19:35:27.536Z,0.52
2023-01-27T19:36:27.570Z,0.51
2023-01-27T19:37:27.596Z,0.51
2023-01-27T19:38:27.606Z,0.51
2023-01-27T19:39:27.671Z,0.51
2023-01-27T19:40:27.668Z,0.52
2023-01-27T19:41:27.747Z,0.50
2023-01-27T19:42:27.731Z,0.51
2023-01-27T19:43:27.766Z,0.51
2023-01-27T19:44:27.800Z,0.51
2023-01-27T19:45:27.888Z,0.51
2023-01-27T19:46:27.861Z,0.51
2023-01-27T19:47:27.876Z,0.50
2023-01-27T19:48:27.917Z,0.51
2023-01-27T19:49:27.957Z,0.52
2023-01-27T19:50:27.974Z,0.50
2023-01-27T19:51:28.028Z,0.51
2023-01-27T19:52:28.026Z,0.51
2023-01-27T19:53:28.067Z,0.51
2023-01-27T19:54:28.123Z,0.51
2023-01-27T19:55:28.190Z,0.52
2023-01-27T19:56:28.160Z,0.51
2023-01-27T19:57:28.194Z,0.50
2023-01-27T19:58:28.219Z,0.51
2023-01-27T19:59:28.251Z,0.51
2023-01-27T20:00:28.261Z,0.50
2023-01-27T20:01:28.313Z,0.51
2023-01-27T20:02:28.332Z,0.51
2023-01-27T20:03:28.380Z,0.50
2023-01-27T20:04:28.419Z,0.51
2023-01-27T20:05:28.445Z,0.52
2023-01-27T20:06:28.441Z,0.51
2023-01-27T20:07:28.486Z,0.51
2023-01-27T20:08:28.515Z,0.50
2023-01-27T20:09:28.582Z,0.51
2023-01-27T20:10:28.572Z,0.50
2023-01-27T20:11:28.616Z,0.51
2023-01-27T20:12:28.643Z,0.51
2023-01-27T20:13:28.692Z,0.51
2023-01-27T20:14:28.727Z,0.51
2023-01-27T20:15:28.742Z,0.51
2023-01-27T20:16:28.829Z,0.51
2023-01-27T20:17:28.801Z,0.51
2023-01-27T20:18:28.857Z,0.50
2023-01-27T20:19:28.874Z,0.50
2023-01-27T20:20:28.920Z,0.51
2023-01-27T20:21:28.900Z,0.51
2023-01-27T20:22:28.939Z,0.52
2023-01-27T20:23:28.991Z,0.53
2023-01-27T20:24:29.083Z,0.50
2023-01-27T20:25:29.045Z,0.51
2023-01-27T20:26:29.096Z,0.51
2023-01-27T20:27:29.144Z,0.50
2023-01-27T20:28:29.162Z,0.52
2023-01-27T20:29:29.185Z,0.51